sensor_id;sensor_type;location;lat;lon;timestamp;pressure;altitude;pressure_sealevel;temperature;humidity
47220;BME280;32961;51.936;4.788;2023-04-22T00:01:02;100836.50;;;9.37;90.88
47220;BME280;32961;51.936;4.788;2023-04-22T00:03:31;100834.78;;;9.36;91.35
47220;BME280;32961;51.936;4.788;2023-04-22T00:06:01;100837.75;;;9.33;91.27
47220;BME280;32961;51.936;4.788;2023-04-22T00:08:29;100829.16;;;9.28;91.37
47220;BME280;32961;51.936;4.788;2023-04-22T00:10:56;100840.16;;;9.26;91.43
47220;BME280;32961;51.936;4.788;2023-04-22T00:13:25;100826.41;;;9.18;91.64
47220;BME280;32961;51.936;4.788;2023-04-22T00:15:55;100821.00;;;9.18;91.48
47220;BME280;32961;51.936;4.788;2023-04-22T00:18:23;100823.69;;;9.18;92.08
47220;BME280;32961;51.936;4.788;2023-04-22T00:20:51;100817.28;;;9.19;92.21
47220;BME280;32961;51.936;4.788;2023-04-22T00:23:20;100805.25;;;9.12;91.89
47220;BME280;32961;51.936;4.788;2023-04-22T00:25:48;100821.56;;;9.22;92.21
47220;BME280;32961;51.936;4.788;2023-04-22T00:28:16;100814.56;;;9.19;91.70
47220;BME280;32961;51.936;4.788;2023-04-22T00:30:43;100815.72;;;9.17;91.88
47220;BME280;32961;51.936;4.788;2023-04-22T00:33:11;100813.00;;;9.17;92.12
47220;BME280;32961;51.936;4.788;2023-04-22T00:35:39;100813.00;;;9.17;91.92
47220;BME280;32961;51.936;4.788;2023-04-22T00:38:07;100811.56;;;9.12;92.05
47220;BME280;32961;51.936;4.788;2023-04-22T00:40:36;100807.38;;;9.08;92.04
47220;BME280;32961;51.936;4.788;2023-04-22T00:43:04;100811.22;;;9.06;92.55
47220;BME280;32961;51.936;4.788;2023-04-22T00:45:33;100820.25;;;9.06;92.51
47220;BME280;32961;51.936;4.788;2023-04-22T00:48:03;100816.22;;;9.01;92.30
47220;BME280;32961;51.936;4.788;2023-04-22T00:50:31;100823.50;;;9.00;92.28
47220;BME280;32961;51.936;4.788;2023-04-22T00:52:59;100819.16;;;8.97;92.43
47220;BME280;32961;51.936;4.788;2023-04-22T00:55:27;100819.31;;;8.96;92.57
47220;BME280;32961;51.936;4.788;2023-04-22T00:57:57;100815.88;;;8.94;92.62
47220;BME280;32961;51.936;4.788;2023-04-22T01:00:27;100817.00;;;8.91;93.06
47220;BME280;32961;51.936;4.788;2023-04-22T01:02:56;100824.28;;;8.91;92.51
47220;BME280;32961;51.936;4.788;2023-04-22T01:05:24;100832.81;;;8.86;92.59
47220;BME280;32961;51.936;4.788;2023-04-22T01:07:53;100825.22;;;8.80;93.14
47220;BME280;32961;51.936;4.788;2023-04-22T01:10:21;100826.09;;;8.80;93.06
47220;BME280;32961;51.936;4.788;2023-04-22T01:12:49;100815.38;;;8.79;93.76
47220;BME280;32961;51.936;4.788;2023-04-22T01:15:18;100816.63;;;8.75;93.92
47220;BME280;32961;51.936;4.788;2023-04-22T01:17:46;100825.59;;;8.75;93.73
47220;BME280;32961;51.936;4.788;2023-04-22T01:20:14;100820.47;;;8.72;93.22
47220;BME280;32961;51.936;4.788;2023-04-22T01:22:44;100817.03;;;8.70;93.94
47220;BME280;32961;51.936;4.788;2023-04-22T01:25:13;100818.03;;;8.69;94.25
47220;BME280;32961;51.936;4.788;2023-04-22T01:27:41;100805.75;;;8.65;93.82
47220;BME280;32961;51.936;4.788;2023-04-22T01:30:10;100812.16;;;8.64;93.97
47220;BME280;32961;51.936;4.788;2023-04-22T01:32:38;100811.84;;;8.57;94.06
47220;BME280;32961;51.936;4.788;2023-04-22T01:35:08;100816.97;;;8.60;94.00
47220;BME280;32961;51.936;4.788;2023-04-22T01:37:36;100822.91;;;8.54;94.67
47220;BME280;32961;51.936;4.788;2023-04-22T01:40:06;100814.53;;;8.46;94.20
47220;BME280;32961;51.936;4.788;2023-04-22T01:42:37;100833.03;;;8.41;94.38
47220;BME280;32961;51.936;4.788;2023-04-22T01:45:06;100831.75;;;8.35;94.99
47220;BME280;32961;51.936;4.788;2023-04-22T01:47:34;100825.97;;;8.28;94.79
47220;BME280;32961;51.936;4.788;2023-04-22T01:50:02;100818.50;;;8.21;94.60
47220;BME280;32961;51.936;4.788;2023-04-22T01:52:30;100815.91;;;8.19;94.35
47220;BME280;32961;51.936;4.788;2023-04-22T01:54:58;100813.34;;;8.17;94.74
47220;BME280;32961;51.936;4.788;2023-04-22T01:57:26;100820.63;;;8.17;94.86
47220;BME280;32961;51.936;4.788;2023-04-22T01:59:55;100827.75;;;8.18;94.68
47220;BME280;32961;51.936;4.788;2023-04-22T02:02:24;100813.13;;;8.09;95.05
47220;BME280;32961;51.936;4.788;2023-04-22T02:04:52;100833.69;;;8.12;94.26
47220;BME280;32961;51.936;4.788;2023-04-22T02:07:20;100830.97;;;8.12;95.12
47220;BME280;32961;51.936;4.788;2023-04-22T02:09:48;100821.75;;;8.03;94.66
47220;BME280;32961;51.936;4.788;2023-04-22T02:12:16;100831.34;;;8.07;94.79
47220;BME280;32961;51.936;4.788;2023-04-22T02:14:44;100830.47;;;8.07;95.02
47220;BME280;32961;51.936;4.788;2023-04-22T02:17:13;100830.59;;;8.05;94.93
47220;BME280;32961;51.936;4.788;2023-04-22T02:19:43;100827.16;;;8.03;95.68
47220;BME280;32961;51.936;4.788;2023-04-22T02:22:11;100824.34;;;8.05;95.25
47220;BME280;32961;51.936;4.788;2023-04-22T02:24:39;100824.47;;;8.03;96.18
47220;BME280;32961;51.936;4.788;2023-04-22T02:27:08;100821.03;;;8.01;96.57
47220;BME280;32961;51.936;4.788;2023-04-22T02:29:36;100825.34;;;8.03;96.39
47220;BME280;32961;51.936;4.788;2023-04-22T02:32:04;100828.50;;;8.09;96.51
47220;BME280;32961;51.936;4.788;2023-04-22T02:34:33;100816.84;;;8.08;96.22
47220;BME280;32961;51.936;4.788;2023-04-22T02:37:02;100820.25;;;8.10;96.68
47220;BME280;32961;51.936;4.788;2023-04-22T02:39:29;100812.13;;;8.10;96.38
47220;BME280;32961;51.936;4.788;2023-04-22T02:41:57;100805.88;;;8.10;96.43
47220;BME280;32961;51.936;4.788;2023-04-22T02:44:25;100801.31;;;8.10;96.57
47220;BME280;32961;51.936;4.788;2023-04-22T02:46:53;100782.28;;;8.00;96.67
47220;BME280;32961;51.936;4.788;2023-04-22T02:49:21;100786.06;;;8.09;97.24
47220;BME280;32961;51.936;4.788;2023-04-22T02:51:50;100788.66;;;8.11;96.85
47220;BME280;32961;51.936;4.788;2023-04-22T02:54:18;100781.38;;;8.11;97.09
47220;BME280;32961;51.936;4.788;2023-04-22T02:56:46;100781.53;;;8.10;96.95
47220;BME280;32961;51.936;4.788;2023-04-22T02:59:13;100784.09;;;8.11;96.91
47220;BME280;32961;51.936;4.788;2023-04-22T03:01:41;100771.53;;;8.10;96.52
47220;BME280;32961;51.936;4.788;2023-04-22T03:04:09;100772.53;;;8.09;96.15
47220;BME280;32961;51.936;4.788;2023-04-22T03:06:39;100778.94;;;8.08;96.78
47220;BME280;32961;51.936;4.788;2023-04-22T03:09:09;100772.81;;;8.06;96.59
47220;BME280;32961;51.936;4.788;2023-04-22T03:11:37;100769.97;;;8.08;96.34
47220;BME280;32961;51.936;4.788;2023-04-22T03:14:05;100766.41;;;8.07;97.76
47220;BME280;32961;51.936;4.788;2023-04-22T03:16:32;100763.56;;;8.09;97.09
47220;BME280;32961;51.936;4.788;2023-04-22T03:19:00;100757.53;;;8.05;98.00
47220;BME280;32961;51.936;4.788;2023-04-22T03:21:28;100759.00;;;8.09;97.36
47220;BME280;32961;51.936;4.788;2023-04-22T03:23:57;100755.72;;;8.06;98.07
47220;BME280;32961;51.936;4.788;2023-04-22T03:26:26;100761.59;;;8.11;97.34
47220;BME280;32961;51.936;4.788;2023-04-22T03:28:54;100752.59;;;8.10;98.19
47220;BME280;32961;51.936;4.788;2023-04-22T03:31:22;100749.03;;;8.10;97.62
47220;BME280;32961;51.936;4.788;2023-04-22T03:33:50;100747.19;;;8.10;98.06
47220;BME280;32961;51.936;4.788;2023-04-22T03:36:18;100747.19;;;8.10;97.85
47220;BME280;32961;51.936;4.788;2023-04-22T03:38:46;100739.94;;;8.11;97.82
47220;BME280;32961;51.936;4.788;2023-04-22T03:41:15;100740.78;;;8.11;98.16
47220;BME280;32961;51.936;4.788;2023-04-22T03:43:44;100743.50;;;8.11;97.86
47220;BME280;32961;51.936;4.788;2023-04-22T03:46:12;100746.19;;;8.11;97.96
47220;BME280;32961;51.936;4.788;2023-04-22T03:48:40;100742.66;;;8.11;98.69
47220;BME280;32961;51.936;4.788;2023-04-22T03:51:07;100739.94;;;8.11;98.65
47220;BME280;32961;51.936;4.788;2023-04-22T03:53:35;100719.81;;;8.03;98.25
47220;BME280;32961;51.936;4.788;2023-04-22T03:56:03;100726.06;;;8.04;98.58
47220;BME280;32961;51.936;4.788;2023-04-22T03:58:31;100730.09;;;8.10;98.62
47220;BME280;32961;51.936;4.788;2023-04-22T04:01:00;100727.41;;;8.10;97.99
47220;BME280;32961;51.936;4.788;2023-04-22T04:03:28;100729.38;;;8.08;99.06
47220;BME280;32961;51.936;4.788;2023-04-22T04:05:57;100727.41;;;8.10;98.87
47220;BME280;32961;51.936;4.788;2023-04-22T04:08:25;100718.69;;;8.06;98.79
47220;BME280;32961;51.936;4.788;2023-04-22T04:10:53;100713.88;;;8.10;98.60
47220;BME280;32961;51.936;4.788;2023-04-22T04:13:21;100711.28;;;8.08;98.50
47220;BME280;32961;51.936;4.788;2023-04-22T04:15:49;100709.72;;;8.06;98.62
47220;BME280;32961;51.936;4.788;2023-04-22T04:18:19;100701.97;;;8.01;99.09
47220;BME280;32961;51.936;4.788;2023-04-22T04:20:47;100710.69;;;8.05;98.54
47220;BME280;32961;51.936;4.788;2023-04-22T04:23:17;100704.31;;;8.06;98.55
47220;BME280;32961;51.936;4.788;2023-04-22T04:25:44;100693.88;;;8.01;98.87
47220;BME280;32961;51.936;4.788;2023-04-22T04:28:13;100697.41;;;8.01;99.11
47220;BME280;32961;51.936;4.788;2023-04-22T04:30:40;100700.25;;;8.00;99.57
47220;BME280;32961;51.936;4.788;2023-04-22T04:33:08;100693.13;;;7.99;99.04
47220;BME280;32961;51.936;4.788;2023-04-22T04:35:39;100695.69;;;8.00;99.58
47220;BME280;32961;51.936;4.788;2023-04-22T04:38:07;100695.69;;;8.00;99.50
47220;BME280;32961;51.936;4.788;2023-04-22T04:40:35;100691.41;;;7.98;100.00
47220;BME280;32961;51.936;4.788;2023-04-22T04:43:02;100695.69;;;8.00;100.00
47220;BME280;32961;51.936;4.788;2023-04-22T04:45:34;100692.16;;;8.00;100.00
47220;BME280;32961;51.936;4.788;2023-04-22T04:48:03;100700.25;;;8.00;100.00
47220;BME280;32961;51.936;4.788;2023-04-22T04:50:32;100693.13;;;7.99;100.00
47220;BME280;32961;51.936;4.788;2023-04-22T04:53:02;100692.41;;;7.97;100.00
47220;BME280;32961;51.936;4.788;2023-04-22T04:55:29;100693.28;;;7.97;100.00
47220;BME280;32961;51.936;4.788;2023-04-22T04:57:57;100692.53;;;7.95;100.00
47220;BME280;32961;51.936;4.788;2023-04-22T05:00:25;100686.28;;;7.95;100.00
47220;BME280;32961;51.936;4.788;2023-04-22T05:02:53;100683.56;;;7.95;100.00
47220;BME280;32961;51.936;4.788;2023-04-22T05:05:21;100684.28;;;7.97;100.00
47220;BME280;32961;51.936;4.788;2023-04-22T05:07:49;100686.75;;;8.00;100.00
47220;BME280;32961;51.936;4.788;2023-04-22T05:10:18;100685.75;;;8.01;100.00
47220;BME280;32961;51.936;4.788;2023-04-22T05:12:46;100688.31;;;8.02;100.00
47220;BME280;32961;51.936;4.788;2023-04-22T05:15:14;100690.28;;;8.00;100.00
47220;BME280;32961;51.936;4.788;2023-04-22T05:17:42;100690.88;;;8.04;100.00
47220;BME280;32961;51.936;4.788;2023-04-22T05:20:10;100691.88;;;8.03;100.00
47220;BME280;32961;51.936;4.788;2023-04-22T05:22:38;100696.03;;;8.07;100.00
47220;BME280;32961;51.936;4.788;2023-04-22T05:25:09;100700.47;;;8.08;100.00
47220;BME280;32961;51.936;4.788;2023-04-22T05:27:39;100708.31;;;8.11;100.00
47220;BME280;32961;51.936;4.788;2023-04-22T05:30:08;100718.28;;;8.11;100.00
47220;BME280;32961;51.936;4.788;2023-04-22T05:32:36;100710.16;;;8.11;100.00
47220;BME280;32961;51.936;4.788;2023-04-22T05:35:04;100706.19;;;8.15;100.00
47220;BME280;32961;51.936;4.788;2023-04-22T05:37:32;100701.53;;;8.17;100.00
47220;BME280;32961;51.936;4.788;2023-04-22T05:40:00;100697.84;;;8.18;100.00
47220;BME280;32961;51.936;4.788;2023-04-22T05:42:28;100696.97;;;8.17;100.00
47220;BME280;32961;51.936;4.788;2023-04-22T05:44:57;100686.88;;;8.19;100.00
47220;BME280;32961;51.936;4.788;2023-04-22T05:47:34;100697.31;;;8.24;100.00
47220;BME280;32961;51.936;4.788;2023-04-22T05:50:01;100693.47;;;8.27;100.00
47220;BME280;32961;51.936;4.788;2023-04-22T05:52:30;100699.47;;;8.30;100.00
47220;BME280;32961;51.936;4.788;2023-04-22T05:54:58;100699.59;;;8.29;100.00
47220;BME280;32961;51.936;4.788;2023-04-22T05:57:25;100701.31;;;8.30;100.00
47220;BME280;32961;51.936;4.788;2023-04-22T05:59:57;100694.91;;;8.31;100.00
47220;BME280;32961;51.936;4.788;2023-04-22T06:02:25;100690.22;;;8.33;100.00
47220;BME280;32961;51.936;4.788;2023-04-22T06:04:53;100684.66;;;8.34;100.00
47220;BME280;32961;51.936;4.788;2023-04-22T06:07:26;100687.13;;;8.38;100.00
47220;BME280;32961;51.936;4.788;2023-04-22T06:09:53;100691.41;;;8.40;100.00
47220;BME280;32961;51.936;4.788;2023-04-22T06:12:31;100678.84;;;8.39;100.00
47220;BME280;32961;51.936;4.788;2023-04-22T06:15:01;100690.63;;;8.49;100.00
47220;BME280;32961;51.936;4.788;2023-04-22T06:17:29;100683.22;;;8.51;100.00
47220;BME280;32961;51.936;4.788;2023-04-22T06:19:59;100668.94;;;8.49;100.00
47220;BME280;32961;51.936;4.788;2023-04-22T06:22:27;100673.81;;;8.56;100.00
47220;BME280;32961;51.936;4.788;2023-04-22T06:24:55;100676.41;;;8.57;100.00
47220;BME280;32961;51.936;4.788;2023-04-22T06:27:23;100681.84;;;8.57;100.00
47220;BME280;32961;51.936;4.788;2023-04-22T06:29:50;100679.97;;;8.58;100.00
47220;BME280;32961;51.936;4.788;2023-04-22T06:32:20;100658.59;;;8.55;100.00
47220;BME280;32961;51.936;4.788;2023-04-22T06:34:47;100674.00;;;8.64;100.00
47220;BME280;32961;51.936;4.788;2023-04-22T06:37:15;100670.03;;;8.68;100.00
47220;BME280;32961;51.936;4.788;2023-04-22T06:39:43;100663.34;;;8.72;100.00
47220;BME280;32961;51.936;4.788;2023-04-22T06:42:11;100659.22;;;8.78;100.00
47220;BME280;32961;51.936;4.788;2023-04-22T06:44:39;100638.00;;;8.73;100.00
47220;BME280;32961;51.936;4.788;2023-04-22T06:47:06;100659.69;;;8.83;100.00
47220;BME280;32961;51.936;4.788;2023-04-22T06:49:36;100668.25;;;8.88;100.00
47220;BME280;32961;51.936;4.788;2023-04-22T06:52:05;100664.41;;;8.91;100.00
47220;BME280;32961;51.936;4.788;2023-04-22T06:54:33;100656.72;;;8.96;100.00
47220;BME280;32961;51.936;4.788;2023-04-22T06:57:00;100656.00;;;9.04;100.00
47220;BME280;32961;51.936;4.788;2023-04-22T06:59:28;100654.63;;;9.09;100.00
47220;BME280;32961;51.936;4.788;2023-04-22T07:01:56;100649.63;;;9.14;100.00
47220;BME280;32961;51.936;4.788;2023-04-22T07:04:24;100643.94;;;9.18;100.00
47220;BME280;32961;51.936;4.788;2023-04-22T07:06:54;100649.78;;;9.23;100.00
47220;BME280;32961;51.936;4.788;2023-04-22T07:09:22;100651.78;;;9.30;100.00
47220;BME280;32961;51.936;4.788;2023-04-22T07:11:50;100652.81;;;9.39;100.00
47220;BME280;32961;51.936;4.788;2023-04-22T07:14:17;100651.81;;;9.50;100.00
47220;BME280;32961;51.936;4.788;2023-04-22T07:16:45;100649.81;;;9.62;100.00
47220;BME280;32961;51.936;4.788;2023-04-22T07:19:13;100647.66;;;9.75;100.00
47220;BME280;32961;51.936;4.788;2023-04-22T07:21:41;100649.06;;;9.89;100.00
47220;BME280;32961;51.936;4.788;2023-04-22T07:24:10;100652.50;;;10.01;100.00
47220;BME280;32961;51.936;4.788;2023-04-22T07:26:39;100655.75;;;10.15;100.00
47220;BME280;32961;51.936;4.788;2023-04-22T07:29:07;100654.00;;;10.23;100.00
47220;BME280;32961;51.936;4.788;2023-04-22T07:31:35;100661.13;;;10.34;100.00
47220;BME280;32961;51.936;4.788;2023-04-22T07:34:03;100667.41;;;10.44;100.00
47220;BME280;32961;51.936;4.788;2023-04-22T07:36:31;100673.69;;;10.55;100.00
47220;BME280;32961;51.936;4.788;2023-04-22T07:38:59;100674.50;;;10.65;100.00
47220;BME280;32961;51.936;4.788;2023-04-22T07:41:28;100673.59;;;10.74;100.00
47220;BME280;32961;51.936;4.788;2023-04-22T07:43:57;100673.56;;;10.84;100.00
47220;BME280;32961;51.936;4.788;2023-04-22T07:46:24;100670.47;;;10.97;100.00
47220;BME280;32961;51.936;4.788;2023-04-22T07:48:52;100667.09;;;11.13;100.00
47220;BME280;32961;51.936;4.788;2023-04-22T07:51:20;100668.00;;;11.32;100.00
47220;BME280;32961;51.936;4.788;2023-04-22T07:53:48;100661.31;;;11.44;100.00
47220;BME280;32961;51.936;4.788;2023-04-22T07:56:16;100654.78;;;11.55;100.00
47220;BME280;32961;51.936;4.788;2023-04-22T07:58:45;100644.69;;;11.65;100.00
47220;BME280;32961;51.936;4.788;2023-04-22T08:01:13;100643.78;;;11.83;100.00
47220;BME280;32961;51.936;4.788;2023-04-22T08:03:43;100630.19;;;12.01;100.00
47220;BME280;32961;51.936;4.788;2023-04-22T08:06:11;100628.53;;;12.08;100.00
47220;BME280;32961;51.936;4.788;2023-04-22T08:08:39;100624.84;;;12.17;100.00
47220;BME280;32961;51.936;4.788;2023-04-22T08:11:07;100617.25;;;12.29;99.98
47220;BME280;32961;51.936;4.788;2023-04-22T08:13:34;100610.31;;;12.35;99.00
47220;BME280;32961;51.936;4.788;2023-04-22T08:16:04;100618.22;;;12.46;98.65
47220;BME280;32961;51.936;4.788;2023-04-22T08:18:32;100616.38;;;12.55;97.53
47220;BME280;32961;51.936;4.788;2023-04-22T08:21:00;100616.72;;;12.60;96.85
47220;BME280;32961;51.936;4.788;2023-04-22T08:23:28;100619.47;;;12.60;95.23
47220;BME280;32961;51.936;4.788;2023-04-22T08:25:56;100620.84;;;12.64;95.76
47220;BME280;32961;51.936;4.788;2023-04-22T08:28:25;100619.19;;;12.80;96.17
47220;BME280;32961;51.936;4.788;2023-04-22T08:30:52;100631.38;;;12.94;95.66
47220;BME280;32961;51.936;4.788;2023-04-22T08:33:22;100634.63;;;13.06;94.01
47220;BME280;32961;51.936;4.788;2023-04-22T08:35:52;100628.88;;;13.17;92.90
47220;BME280;32961;51.936;4.788;2023-04-22T08:38:20;100627.53;;;13.29;92.71
47220;BME280;32961;51.936;4.788;2023-04-22T08:40:48;100627.59;;;13.46;92.42
47220;BME280;32961;51.936;4.788;2023-04-22T08:43:17;100610.53;;;13.52;92.00
47220;BME280;32961;51.936;4.788;2023-04-22T08:45:44;100624.34;;;13.75;91.18
47220;BME280;32961;51.936;4.788;2023-04-22T08:48:12;100612.59;;;13.75;89.78
47220;BME280;32961;51.936;4.788;2023-04-22T08:50:42;100617.00;;;13.84;89.56
47220;BME280;32961;51.936;4.788;2023-04-22T08:53:11;100602.66;;;13.90;87.30
47220;BME280;32961;51.936;4.788;2023-04-22T08:55:39;100598.91;;;13.91;86.94
47220;BME280;32961;51.936;4.788;2023-04-22T08:58:10;100589.00;;;13.99;86.75
47220;BME280;32961;51.936;4.788;2023-04-22T09:00:38;100582.19;;;14.03;85.39
47220;BME280;32961;51.936;4.788;2023-04-22T09:03:08;100585.06;;;14.09;85.04
47220;BME280;32961;51.936;4.788;2023-04-22T09:05:39;100568.16;;;14.14;84.10
47220;BME280;32961;51.936;4.788;2023-04-22T09:08:09;100571.53;;;14.24;83.35
47220;BME280;32961;51.936;4.788;2023-04-22T09:10:37;100574.44;;;14.31;81.82
47220;BME280;32961;51.936;4.788;2023-04-22T09:13:05;100566.75;;;14.26;79.97
47220;BME280;32961;51.936;4.788;2023-04-22T09:15:33;100555.81;;;14.26;78.88
47220;BME280;32961;51.936;4.788;2023-04-22T09:18:02;100546.75;;;14.26;77.96
47220;BME280;32961;51.936;4.788;2023-04-22T09:20:31;100541.97;;;14.28;76.87
47220;BME280;32961;51.936;4.788;2023-04-22T09:23:02;100522.50;;;14.31;75.60
47220;BME280;32961;51.936;4.788;2023-04-22T09:25:33;100514.66;;;14.20;75.86
47220;BME280;32961;51.936;4.788;2023-04-22T09:28:01;100508.88;;;14.23;76.43
47220;BME280;32961;51.936;4.788;2023-04-22T09:30:31;100516.88;;;14.24;76.53
47220;BME280;32961;51.936;4.788;2023-04-22T09:33:00;100528.31;;;14.28;76.52
47220;BME280;32961;51.936;4.788;2023-04-22T09:35:31;100545.22;;;14.32;76.59
47220;BME280;32961;51.936;4.788;2023-04-22T09:38:00;100564.31;;;14.40;76.63
47220;BME280;32961;51.936;4.788;2023-04-22T09:40:30;100574.66;;;14.53;76.46
47220;BME280;32961;51.936;4.788;2023-04-22T09:43:01;100573.44;;;14.64;75.54
47220;BME280;32961;51.936;4.788;2023-04-22T09:45:30;100585.91;;;14.74;76.09
47220;BME280;32961;51.936;4.788;2023-04-22T09:48:01;100575.41;;;14.86;76.47
47220;BME280;32961;51.936;4.788;2023-04-22T09:50:29;100578.72;;;15.05;76.88
47220;BME280;32961;51.936;4.788;2023-04-22T09:52:59;100574.00;;;15.22;74.25
47220;BME280;32961;51.936;4.788;2023-04-22T09:55:30;100572.66;;;15.41;74.97
47220;BME280;32961;51.936;4.788;2023-04-22T09:58:05;100574.53;;;15.64;74.27
47220;BME280;32961;51.936;4.788;2023-04-22T10:00:35;100568.59;;;15.75;74.50
47220;BME280;32961;51.936;4.788;2023-04-22T10:03:04;100570.91;;;15.86;74.45
47220;BME280;32961;51.936;4.788;2023-04-22T10:05:35;100571.03;;;15.93;73.60
47220;BME280;32961;51.936;4.788;2023-04-22T10:08:04;100568.41;;;16.00;73.47
47220;BME280;32961;51.936;4.788;2023-04-22T10:10:32;100567.75;;;15.98;71.44
47220;BME280;32961;51.936;4.788;2023-04-22T10:13:03;100566.41;;;15.94;71.59
47220;BME280;32961;51.936;4.788;2023-04-22T10:15:32;100561.88;;;16.01;72.83
47220;BME280;32961;51.936;4.788;2023-04-22T10:18:02;100566.31;;;16.02;71.57
47220;BME280;32961;51.936;4.788;2023-04-22T10:20:35;100570.38;;;16.06;72.11
47220;BME280;32961;51.936;4.788;2023-04-22T10:23:04;100567.22;;;16.17;72.26
47220;BME280;32961;51.936;4.788;2023-04-22T10:25:32;100572.41;;;16.27;71.98
47220;BME280;32961;51.936;4.788;2023-04-22T10:28:03;100579.69;;;16.35;71.11
47220;BME280;32961;51.936;4.788;2023-04-22T10:30:32;100592.50;;;16.34;71.42
47220;BME280;32961;51.936;4.788;2023-04-22T10:33:35;100590.16;;;16.31;70.74
47220;BME280;32961;51.936;4.788;2023-04-22T10:36:06;100593.00;;;16.23;71.29
47220;BME280;32961;51.936;4.788;2023-04-22T10:38:34;100608.97;;;16.19;70.76
47220;BME280;32961;51.936;4.788;2023-04-22T10:41:03;100587.03;;;16.04;69.75
47220;BME280;32961;51.936;4.788;2023-04-22T10:43:43;100585.88;;;15.99;71.45
47220;BME280;32961;51.936;4.788;2023-04-22T10:49:29;100585.03;;;15.98;71.82
47220;BME280;32961;51.936;4.788;2023-04-22T10:51:59;100578.41;;;15.93;71.72
47220;BME280;32961;51.936;4.788;2023-04-22T10:54:55;100578.31;;;15.86;71.74
47220;BME280;32961;51.936;4.788;2023-04-22T10:57:32;100569.16;;;15.70;69.50
47220;BME280;32961;51.936;4.788;2023-04-22T11:00:22;100561.34;;;15.44;71.16
47220;BME280;32961;51.936;4.788;2023-04-22T11:02:52;100563.78;;;15.39;72.00
47220;BME280;32961;51.936;4.788;2023-04-22T11:05:23;100569.50;;;15.29;72.11
47220;BME280;32961;51.936;4.788;2023-04-22T11:07:54;100589.75;;;15.20;72.44
47220;BME280;32961;51.936;4.788;2023-04-22T11:10:36;100600.63;;;15.05;73.95
47220;BME280;32961;51.936;4.788;2023-04-22T11:13:12;100608.16;;;15.03;74.50
47220;BME280;32961;51.936;4.788;2023-04-22T11:15:43;100592.81;;;14.94;75.85
47220;BME280;32961;51.936;4.788;2023-04-22T11:18:19;100590.75;;;14.96;77.17
47220;BME280;32961;51.936;4.788;2023-04-22T11:20:48;100589.13;;;14.78;78.44
47220;BME280;32961;51.936;4.788;2023-04-22T11:23:18;100592.41;;;14.65;80.21
47220;BME280;32961;51.936;4.788;2023-04-22T11:25:46;100598.13;;;14.47;81.29
47220;BME280;32961;51.936;4.788;2023-04-22T11:28:14;100603.31;;;14.25;82.84
47220;BME280;32961;51.936;4.788;2023-04-22T11:30:43;100596.31;;;14.06;85.29
47220;BME280;32961;51.936;4.788;2023-04-22T11:33:14;100607.47;;;13.88;86.48
47220;BME280;32961;51.936;4.788;2023-04-22T11:35:47;100610.84;;;13.90;85.76
47220;BME280;32961;51.936;4.788;2023-04-22T11:38:16;100610.53;;;14.02;85.68
47220;BME280;32961;51.936;4.788;2023-04-22T11:40:43;100605.41;;;13.99;85.47
47220;BME280;32961;51.936;4.788;2023-04-22T11:43:13;100605.41;;;13.74;85.96
47220;BME280;32961;51.936;4.788;2023-04-22T11:45:41;100600.28;;;13.79;86.11
47220;BME280;32961;51.936;4.788;2023-04-22T11:48:10;100601.81;;;13.82;86.35
47220;BME280;32961;51.936;4.788;2023-04-22T11:50:39;100600.28;;;13.71;87.31
47220;BME280;32961;51.936;4.788;2023-04-22T11:53:13;100596.06;;;13.60;87.78
47220;BME280;32961;51.936;4.788;2023-04-22T11:55:42;100595.19;;;13.68;87.54
47220;BME280;32961;51.936;4.788;2023-04-22T11:58:12;100607.13;;;13.75;87.97
47220;BME280;32961;51.936;4.788;2023-04-22T12:00:42;100635.09;;;13.85;88.63
47220;BME280;32961;51.936;4.788;2023-04-22T12:03:14;100641.09;;;13.89;88.42
47220;BME280;32961;51.936;4.788;2023-04-22T12:05:44;100633.06;;;13.87;88.53
47220;BME280;32961;51.936;4.788;2023-04-22T12:08:14;100610.69;;;13.75;89.27
47220;BME280;32961;51.936;4.788;2023-04-22T12:10:43;100596.66;;;13.37;89.15
47220;BME280;32961;51.936;4.788;2023-04-22T12:13:19;100584.91;;;13.28;89.97
47220;BME280;32961;51.936;4.788;2023-04-22T12:15:51;100575.84;;;13.28;90.26
47220;BME280;32961;51.936;4.788;2023-04-22T12:18:28;100559.78;;;13.00;90.82
47220;BME280;32961;51.936;4.788;2023-04-22T12:21:01;100561.84;;;13.06;91.21
47220;BME280;32961;51.936;4.788;2023-04-22T12:23:40;100563.38;;;13.09;91.37
47220;BME280;32961;51.936;4.788;2023-04-22T12:26:08;100571.94;;;13.22;91.71
47220;BME280;32961;51.936;4.788;2023-04-22T12:28:37;100570.91;;;13.23;91.35
47220;BME280;32961;51.936;4.788;2023-04-22T12:31:06;100597.66;;;13.28;91.25
47220;BME280;32961;51.936;4.788;2023-04-22T12:33:36;100581.81;;;13.15;92.74
47220;BME280;32961;51.936;4.788;2023-04-22T12:36:05;100597.16;;;13.16;92.72
47220;BME280;32961;51.936;4.788;2023-04-22T12:38:33;100593.41;;;13.17;93.71
47220;BME280;32961;51.936;4.788;2023-04-22T12:41:02;100587.97;;;13.17;92.48
47220;BME280;32961;51.936;4.788;2023-04-22T12:43:31;100594.22;;;13.09;92.80
47220;BME280;32961;51.936;4.788;2023-04-22T12:46:02;100579.94;;;13.07;92.94
47220;BME280;32961;51.936;4.788;2023-04-22T12:48:30;100592.53;;;13.08;92.69
47220;BME280;32961;51.936;4.788;2023-04-22T12:51:00;100593.22;;;13.10;93.48
47220;BME280;32961;51.936;4.788;2023-04-22T12:53:28;100593.25;;;13.19;94.01
47220;BME280;32961;51.936;4.788;2023-04-22T12:55:56;100582.81;;;13.14;93.25
47220;BME280;32961;51.936;4.788;2023-04-22T12:58:25;100575.00;;;13.11;93.71
47220;BME280;32961;51.936;4.788;2023-04-22T13:00:53;100590.16;;;13.22;94.04
47220;BME280;32961;51.936;4.788;2023-04-22T13:03:20;100599.53;;;13.19;93.44
47220;BME280;32961;51.936;4.788;2023-04-22T13:05:48;100617.28;;;13.23;93.02